Terminal Aerodrome Forecast
Issued by NWS Charleston, WV

Current Version | Previous Version | Text Only | Print | Product List | Glossary Off
Versions: 1 2 3 4 5 6 7 8 9 10 11 12 13 14 15 16 17 18 19 20 21 22 23 24 25 26 27

000
FTUS41 KRLX 210900 AAA
TAFHTS
TAF AMD
KHTS 210948Z 2110/2206 19006KT P6SM SCT070
     FM211200 21007KT P6SM BKN035
     FM211400 23008KT 6SM SHRA BR VCTS BKN025CB
     FM211900 25010G15KT P6SM BKN025
     FM212100 26011G17KT P6SM BKN035
     FM212300 29010G15KT P6SM SCT040
     FM220500 30006KT P6SM SCT040=

USA.gov is the U.S. government's official web portal to all federal, state and local government web resources and services.